Terminal Aerodrome Forecast
Issued by NWS

Home | Current Version | Previous Version | Graphics & Text | Print | Product List | Glossary On
Versions: 1 2 3 4 5 6 7 8 9 10 11 12 13 14 15 16 17
000
FTUS43 KICT 171140
TAFHUT
TAF
KHUT 171140Z 1712/1812 10013KT P6SM SKC
     FM171700 12013KT P6SM BKN250
     FM172200 17017G22KT P6SM SKC
     FM180100 18022G30KT P6SM SKC
     FM180400 31026G35KT P6SM SKC=

USA.gov is the U.S. government's official web portal to all federal, state and local government web resources and services.